TJM weather

Tanjung Maju Airstrip
Tanjung Maju, Kalimantan Barat, Indonesia

Public forecast

Using degrees Celsius for public forecast. Weather courtesy of forecast.io.

Closest aviation weather report (METAR) to Tanjung Maju Airstrip

Closest report is Supadio Airport, 73.8 nm (136.7 km) WNW. Retrieved 2019/12/16 07:30 UTC (0 seconds ago):

WIOO 160730Z 00000KT 9999 BKN012 32/23 Q1006 NOSIG

Closest aviation forecast (TAF) to Tanjung Maju Airstrip

Forecast is more than 12 hours old.

Closest forecast is Supadio Airport, 73.8 nm (136.7 km) WNW. Retrieved 2014/03/26 00:51 UTC (6 years ago):

TAF TAF WIOO 252300Z 2600/2624 10002KT 7000 SCT011 BECMG 2601/2603 08005KT 9999 TEMPO 2607/2610 15010KT 3000